Huvudsida
METAR-TAF:

METAR-TAF

Flygplatser :

Stords flygplats. Sørstokken

Stords, Norge

latitud: 59-48N, longitud: 005-21E, höjd: 49 m

Aktuellt väderrapport

Denna rapport gjordes för 7 timmar och 32 minuter sedan, klockan 17:20 UTC
Vind 8 kt från syd
Temperatur 4°C
Fuktighet 100%
Tryck 1010 hPa
Sikt 10 km eller mer
Spridda moln på en höjd av 1000 ft
Brutna moln på en höjd av 1400 ft
lätt regn,

METAR: ENSO 191720Z 17008KT 9999 -RA SCT010 BKN014 04/04 Q1010

Tid: 02:52 (00:52 UTC)

Väderprognos

Denna rapport gjordes för 13 timmar och 52 minuter sedan, klockan 11:00 UTC
Prognos gäller från 19 kl. 12 UTC till 19 kl. 18 UTC
Vind 10 kt från sydost
Sikt 10 km eller mer
Få moln på en höjd av 1500 ft
Brutna moln på en höjd av 3000 ft
lätt regn
Sannolikhet 30% :
Temporärt
från 19 kl. 14 UTC till 19 kl. 18 UTC
Brutna moln på en höjd av 1000 ft

TAF: ENSO 191100Z 1912/1918 14010KT 9999 -RA FEW015 BKN030 PROB30 TEMPO 1914/1918 BKN010

Aktuella väderrapporter och prognoser från 4000 flygplatser (METAR- och TAF-rapporter).

De tillgängliga stationerna syns som gula och röda prickar på kartan.

För musen över prickarna för att se namnen på stationerna.

Klicka sedan för att få väderrapporter och prognoser.

För att ändra kartan: Klicka på de gröna knapparna med ett svart kors på för att zooma in; den gröna knappen med ett streck på för att zooma ut; eller på de gröna pilarna för angränsande kartor.


METAR-TAF: